sensor_id;sensor_type;location;lat;lon;timestamp;pressure;altitude;pressure_sealevel;temperature;humidity
68476;BME280;55464;48.266;14.188;2023-05-07T00:02:20;97734.34;;;15.11;67.08
68476;BME280;55464;48.266;14.188;2023-05-07T00:04:46;97731.16;;;15.09;67.07
68476;BME280;55464;48.266;14.188;2023-05-07T00:07:11;97739.91;;;15.11;67.18
68476;BME280;55464;48.266;14.188;2023-05-07T00:09:36;97729.53;;;15.04;67.31
68476;BME280;55464;48.266;14.188;2023-05-07T00:12:02;97739.06;;;15.07;67.39
68476;BME280;55464;48.266;14.188;2023-05-07T00:14:27;97734.25;;;15.04;67.36
68476;BME280;55464;48.266;14.188;2023-05-07T00:16:53;97744.94;;;15.02;67.45
68476;BME280;55464;48.266;14.188;2023-05-07T00:19:18;97744.53;;;15.00;67.50
68476;BME280;55464;48.266;14.188;2023-05-07T00:21:44;97732.09;;;14.90;67.71
68476;BME280;55464;48.266;14.188;2023-05-07T00:24:09;97746.47;;;14.96;67.71
68476;BME280;55464;48.266;14.188;2023-05-07T00:26:34;97750.44;;;14.98;67.68
68476;BME280;55464;48.266;14.188;2023-05-07T00:29:00;97748.03;;;14.97;67.83
68476;BME280;55464;48.266;14.188;2023-05-07T00:31:25;97745.22;;;14.93;68.00
68476;BME280;55464;48.266;14.188;2023-05-07T00:33:50;97745.97;;;14.90;68.12
68476;BME280;55464;48.266;14.188;2023-05-07T00:36:16;97761.06;;;14.92;68.11
68476;BME280;55464;48.266;14.188;2023-05-07T00:38:41;97749.50;;;14.87;68.16
68476;BME280;55464;48.266;14.188;2023-05-07T00:41:07;97761.88;;;14.93;68.32
68476;BME280;55464;48.266;14.188;2023-05-07T00:43:32;97756.25;;;14.89;68.14
68476;BME280;55464;48.266;14.188;2023-05-07T00:45:58;97746.81;;;14.94;67.99
68476;BME280;55464;48.266;14.188;2023-05-07T00:48:24;97750.03;;;14.96;68.02
68476;BME280;55464;48.266;14.188;2023-05-07T00:50:50;97746.00;;;14.93;67.65
68476;BME280;55464;48.266;14.188;2023-05-07T00:53:15;97742.44;;;14.93;67.89
68476;BME280;55464;48.266;14.188;2023-05-07T00:55:41;97759.19;;;15.00;67.07
68476;BME280;55464;48.266;14.188;2023-05-07T00:58:07;97760.72;;;14.94;67.53
68476;BME280;55464;48.266;14.188;2023-05-07T01:00:33;97758.66;;;14.91;67.74
68476;BME280;55464;48.266;14.188;2023-05-07T01:02:59;97747.84;;;14.82;68.04
68476;BME280;55464;48.266;14.188;2023-05-07T01:05:25;97755.06;;;14.87;67.42
68476;BME280;55464;48.266;14.188;2023-05-07T01:07:53;97742.75;;;14.88;67.51
68476;BME280;55464;48.266;14.188;2023-05-07T01:10:20;97756.75;;;14.95;67.34
68476;BME280;55464;48.266;14.188;2023-05-07T01:12:46;97751.13;;;14.91;67.27
68476;BME280;55464;48.266;14.188;2023-05-07T01:15:12;97761.19;;;15.00;67.37
68476;BME280;55464;48.266;14.188;2023-05-07T01:17:41;97756.84;;;15.02;67.57
68476;BME280;55464;48.266;14.188;2023-05-07T01:20:07;97763.63;;;15.05;67.58
68476;BME280;55464;48.266;14.188;2023-05-07T01:22:37;97769.59;;;15.07;67.47
68476;BME280;55464;48.266;14.188;2023-05-07T01:25:04;97764.41;;;15.05;67.28
68476;BME280;55464;48.266;14.188;2023-05-07T01:27:29;97754.41;;;14.97;67.67
68476;BME280;55464;48.266;14.188;2023-05-07T01:29:55;97769.13;;;15.01;67.59
68476;BME280;55464;48.266;14.188;2023-05-07T01:32:47;97762.84;;;15.04;67.28
68476;BME280;55464;48.266;14.188;2023-05-07T01:35:15;97761.22;;;15.03;67.03
68476;BME280;55464;48.266;14.188;2023-05-07T01:37:42;97762.38;;;15.02;67.32
68476;BME280;55464;48.266;14.188;2023-05-07T01:40:08;97767.56;;;15.04;67.04
68476;BME280;55464;48.266;14.188;2023-05-07T01:42:35;97758.81;;;15.02;67.10
68476;BME280;55464;48.266;14.188;2023-05-07T01:45:00;97750.03;;;14.96;67.01
68476;BME280;55464;48.266;14.188;2023-05-07T01:47:26;97751.63;;;14.97;67.03
68476;BME280;55464;48.266;14.188;2023-05-07T01:49:52;97755.94;;;14.94;67.25
68476;BME280;55464;48.266;14.188;2023-05-07T01:52:17;97751.97;;;14.92;67.10
68476;BME280;55464;48.266;14.188;2023-05-07T01:54:43;97754.22;;;14.86;67.34
68476;BME280;55464;48.266;14.188;2023-05-07T01:57:08;97751.78;;;14.81;67.42
68476;BME280;55464;48.266;14.188;2023-05-07T01:59:33;97758.88;;;14.79;67.38
68476;BME280;55464;48.266;14.188;2023-05-07T02:01:59;97752.59;;;14.82;67.10
68476;BME280;55464;48.266;14.188;2023-05-07T02:04:25;97742.56;;;14.73;66.74
68476;BME280;55464;48.266;14.188;2023-05-07T02:06:51;97732.63;;;14.72;66.66
68476;BME280;55464;48.266;14.188;2023-05-07T02:09:17;97743.84;;;14.80;66.76
68476;BME280;55464;48.266;14.188;2023-05-07T02:11:43;97747.38;;;14.77;66.45
68476;BME280;55464;48.266;14.188;2023-05-07T02:14:08;97739.84;;;14.77;66.25
68476;BME280;55464;48.266;14.188;2023-05-07T02:16:34;97744.50;;;14.69;66.51
68476;BME280;55464;48.266;14.188;2023-05-07T02:18:59;97739.25;;;14.64;66.47
68476;BME280;55464;48.266;14.188;2023-05-07T02:21:25;97748.84;;;14.70;66.68
68476;BME280;55464;48.266;14.188;2023-05-07T02:23:50;97747.25;;;14.69;66.92
68476;BME280;55464;48.266;14.188;2023-05-07T02:26:15;97741.59;;;14.62;66.92
68476;BME280;55464;48.266;14.188;2023-05-07T02:28:41;97747.81;;;14.55;67.83
68476;BME280;55464;48.266;14.188;2023-05-07T02:31:06;97747.69;;;14.48;68.23
68476;BME280;55464;48.266;14.188;2023-05-07T02:33:32;97744.66;;;14.34;68.69
68476;BME280;55464;48.266;14.188;2023-05-07T02:36:14;97745.91;;;14.36;68.87
68476;BME280;55464;48.266;14.188;2023-05-07T02:38:39;97750.16;;;14.30;68.99
68476;BME280;55464;48.266;14.188;2023-05-07T02:41:05;97746.09;;;14.24;69.46
68476;BME280;55464;48.266;14.188;2023-05-07T02:43:30;97753.50;;;14.16;70.01
68476;BME280;55464;48.266;14.188;2023-05-07T02:46:06;97756.13;;;14.09;70.41
68476;BME280;55464;48.266;14.188;2023-05-07T02:48:32;97735.88;;;14.05;70.99
68476;BME280;55464;48.266;14.188;2023-05-07T02:50:58;97748.81;;;14.21;70.49
68476;BME280;55464;48.266;14.188;2023-05-07T02:53:24;97738.09;;;14.19;70.19
68476;BME280;55464;48.266;14.188;2023-05-07T02:56:00;97747.31;;;14.27;70.35
68476;BME280;55464;48.266;14.188;2023-05-07T02:58:26;97747.38;;;14.30;70.36
68476;BME280;55464;48.266;14.188;2023-05-07T03:00:52;97760.50;;;14.33;70.07
68476;BME280;55464;48.266;14.188;2023-05-07T03:03:19;97754.59;;;14.35;69.92
68476;BME280;55464;48.266;14.188;2023-05-07T03:05:45;97750.59;;;14.32;69.80
68476;BME280;55464;48.266;14.188;2023-05-07T03:08:10;97761.75;;;14.36;69.67
68476;BME280;55464;48.266;14.188;2023-05-07T03:10:36;97762.13;;;14.34;69.68
68476;BME280;55464;48.266;14.188;2023-05-07T03:13:02;97766.09;;;14.37;69.82
68476;BME280;55464;48.266;14.188;2023-05-07T03:15:28;97769.63;;;14.34;69.51
68476;BME280;55464;48.266;14.188;2023-05-07T03:17:53;97764.00;;;14.30;69.50
68476;BME280;55464;48.266;14.188;2023-05-07T03:20:19;97768.03;;;14.33;69.51
68476;BME280;55464;48.266;14.188;2023-05-07T03:22:44;97770.75;;;14.29;69.58
68476;BME280;55464;48.266;14.188;2023-05-07T03:25:10;97756.50;;;14.31;69.42
68476;BME280;55464;48.266;14.188;2023-05-07T03:27:35;97757.59;;;14.26;69.57
68476;BME280;55464;48.266;14.188;2023-05-07T03:30:01;97757.31;;;14.31;69.71
68476;BME280;55464;48.266;14.188;2023-05-07T03:32:26;97755.63;;;14.27;69.48
68476;BME280;55464;48.266;14.188;2023-05-07T03:34:52;97769.63;;;14.34;69.58
68476;BME280;55464;48.266;14.188;2023-05-07T03:37:17;97764.47;;;14.32;69.61
68476;BME280;55464;48.266;14.188;2023-05-07T03:39:43;97763.22;;;14.30;69.52
68476;BME280;55464;48.266;14.188;2023-05-07T03:42:08;97771.53;;;14.30;69.66
68476;BME280;55464;48.266;14.188;2023-05-07T03:44:34;97766.59;;;14.19;69.79
68476;BME280;55464;48.266;14.188;2023-05-07T03:47:01;97768.94;;;14.17;69.97
68476;BME280;55464;48.266;14.188;2023-05-07T03:49:27;97771.66;;;14.14;70.23
68476;BME280;55464;48.266;14.188;2023-05-07T03:51:52;97776.91;;;14.19;70.03
68476;BME280;55464;48.266;14.188;2023-05-07T03:54:17;97783.66;;;14.22;69.79
68476;BME280;55464;48.266;14.188;2023-05-07T03:56:43;97787.25;;;14.22;69.56
68476;BME280;55464;48.266;14.188;2023-05-07T03:59:08;97785.34;;;14.26;69.44
68476;BME280;55464;48.266;14.188;2023-05-07T04:01:33;97787.69;;;14.24;69.42
68476;BME280;55464;48.266;14.188;2023-05-07T04:03:59;97791.97;;;14.22;69.83
68476;BME280;55464;48.266;14.188;2023-05-07T04:06:24;97791.97;;;14.22;70.10
68476;BME280;55464;48.266;14.188;2023-05-07T04:08:50;97793.94;;;14.21;69.81
68476;BME280;55464;48.266;14.188;2023-05-07T04:11:15;97789.91;;;14.15;69.93
68476;BME280;55464;48.266;14.188;2023-05-07T04:13:41;97797.25;;;14.07;70.34
68476;BME280;55464;48.266;14.188;2023-05-07T04:16:06;97801.66;;;14.08;70.53
68476;BME280;55464;48.266;14.188;2023-05-07T04:18:31;97793.25;;;14.05;70.75
68476;BME280;55464;48.266;14.188;2023-05-07T04:20:57;97808.72;;;14.06;71.25
68476;BME280;55464;48.266;14.188;2023-05-07T04:23:22;97804.00;;;14.06;71.16
68476;BME280;55464;48.266;14.188;2023-05-07T04:25:48;97805.94;;;14.06;71.33
68476;BME280;55464;48.266;14.188;2023-05-07T04:28:13;97796.03;;;14.05;71.41
68476;BME280;55464;48.266;14.188;2023-05-07T04:30:39;97805.63;;;14.11;71.24
68476;BME280;55464;48.266;14.188;2023-05-07T04:33:04;97800.41;;;14.06;71.27
68476;BME280;55464;48.266;14.188;2023-05-07T04:35:31;97813.94;;;14.11;71.43
68476;BME280;55464;48.266;14.188;2023-05-07T04:37:57;97811.53;;;14.09;71.63
68476;BME280;55464;48.266;14.188;2023-05-07T04:40:22;97811.94;;;14.08;71.47
68476;BME280;55464;48.266;14.188;2023-05-07T04:42:48;97811.47;;;14.06;71.78
68476;BME280;55464;48.266;14.188;2023-05-07T04:45:13;97817.47;;;14.08;71.71
68476;BME280;55464;48.266;14.188;2023-05-07T04:47:39;97816.66;;;14.07;71.63
68476;BME280;55464;48.266;14.188;2023-05-07T04:50:06;97819.00;;;14.05;71.66
68476;BME280;55464;48.266;14.188;2023-05-07T04:52:31;97821.03;;;14.08;72.03
68476;BME280;55464;48.266;14.188;2023-05-07T04:54:59;97829.34;;;14.08;71.93
68476;BME280;55464;48.266;14.188;2023-05-07T04:57:25;97826.53;;;14.05;72.02
68476;BME280;55464;48.266;14.188;2023-05-07T04:59:51;97821.47;;;14.10;72.07
68476;BME280;55464;48.266;14.188;2023-05-07T05:02:17;97826.94;;;14.07;72.17
68476;BME280;55464;48.266;14.188;2023-05-07T05:04:42;97835.09;;;14.19;72.04
68476;BME280;55464;48.266;14.188;2023-05-07T05:07:07;97831.53;;;14.18;71.87
68476;BME280;55464;48.266;14.188;2023-05-07T05:09:33;97833.19;;;14.23;71.76
68476;BME280;55464;48.266;14.188;2023-05-07T05:11:59;97842.75;;;14.26;71.85
68476;BME280;55464;48.266;14.188;2023-05-07T05:14:24;97842.38;;;14.27;71.76
68476;BME280;55464;48.266;14.188;2023-05-07T05:16:50;97831.31;;;14.27;71.85
68476;BME280;55464;48.266;14.188;2023-05-07T05:19:15;97848.50;;;14.36;71.73
68476;BME280;55464;48.266;14.188;2023-05-07T05:21:41;97848.91;;;14.38;71.69
68476;BME280;55464;48.266;14.188;2023-05-07T05:24:07;97844.09;;;14.35;71.67
68476;BME280;55464;48.266;14.188;2023-05-07T05:26:32;97854.16;;;14.44;71.71
68476;BME280;55464;48.266;14.188;2023-05-07T05:28:57;97849.47;;;14.48;71.73
68476;BME280;55464;48.266;14.188;2023-05-07T05:31:23;97846.28;;;14.46;71.67
68476;BME280;55464;48.266;14.188;2023-05-07T05:33:48;97847.94;;;14.50;71.48
68476;BME280;55464;48.266;14.188;2023-05-07T05:36:14;97849.53;;;14.51;71.31
68476;BME280;55464;48.266;14.188;2023-05-07T05:38:39;97851.66;;;14.58;71.29
68476;BME280;55464;48.266;14.188;2023-05-07T05:41:05;97850.16;;;14.61;71.18
68476;BME280;55464;48.266;14.188;2023-05-07T05:43:31;97853.41;;;14.66;71.32
68476;BME280;55464;48.266;14.188;2023-05-07T05:45:56;97823.00;;;14.50;71.63
68476;BME280;55464;48.266;14.188;2023-05-07T05:48:22;97855.09;;;14.71;71.33
68476;BME280;55464;48.266;14.188;2023-05-07T05:50:48;97843.16;;;14.70;71.43
68476;BME280;55464;48.266;14.188;2023-05-07T05:53:14;97834.41;;;14.68;71.59
68476;BME280;55464;48.266;14.188;2023-05-07T05:55:41;97848.03;;;14.77;71.83
68476;BME280;55464;48.266;14.188;2023-05-07T05:58:06;97847.34;;;14.84;71.58
68476;BME280;55464;48.266;14.188;2023-05-07T06:00:32;97837.84;;;14.85;71.42
68476;BME280;55464;48.266;14.188;2023-05-07T06:02:57;97843.09;;;14.90;71.38
68476;BME280;55464;48.266;14.188;2023-05-07T06:05:23;97831.56;;;14.88;71.89
68476;BME280;55464;48.266;14.188;2023-05-07T06:07:48;97846.84;;;15.01;71.50
68476;BME280;55464;48.266;14.188;2023-05-07T06:10:13;97821.44;;;14.99;70.15
68476;BME280;55464;48.266;14.188;2023-05-07T06:12:39;97832.69;;;15.10;69.20
68476;BME280;55464;48.266;14.188;2023-05-07T06:15:05;97838.31;;;15.13;69.73
68476;BME280;55464;48.266;14.188;2023-05-07T06:17:30;97839.63;;;15.23;68.93
68476;BME280;55464;48.266;14.188;2023-05-07T06:19:56;97834.41;;;15.18;69.12
68476;BME280;55464;48.266;14.188;2023-05-07T06:22:21;97845.19;;;15.23;68.03
68476;BME280;55464;48.266;14.188;2023-05-07T06:24:47;97848.00;;;15.27;68.35
68476;BME280;55464;48.266;14.188;2023-05-07T06:27:12;97845.44;;;15.15;68.52
68476;BME280;55464;48.266;14.188;2023-05-07T06:29:37;97847.91;;;15.20;68.15
68476;BME280;55464;48.266;14.188;2023-05-07T06:32:12;97842.28;;;15.16;68.56
68476;BME280;55464;48.266;14.188;2023-05-07T06:34:39;97852.78;;;15.26;68.69
68476;BME280;55464;48.266;14.188;2023-05-07T06:37:05;97846.84;;;15.28;68.04
68476;BME280;55464;48.266;14.188;2023-05-07T06:39:31;97854.44;;;15.31;68.58
68476;BME280;55464;48.266;14.188;2023-05-07T06:41:56;97858.78;;;15.32;68.31
68476;BME280;55464;48.266;14.188;2023-05-07T06:44:22;97850.91;;;15.34;68.40
68476;BME280;55464;48.266;14.188;2023-05-07T06:46:47;97862.88;;;15.38;68.37
68476;BME280;55464;48.266;14.188;2023-05-07T06:49:13;97856.94;;;15.40;68.09
68476;BME280;55464;48.266;14.188;2023-05-07T06:51:38;97873.34;;;15.48;68.34
68476;BME280;55464;48.266;14.188;2023-05-07T06:54:04;97869.75;;;15.48;68.08
68476;BME280;55464;48.266;14.188;2023-05-07T06:56:30;97880.06;;;15.47;67.68
68476;BME280;55464;48.266;14.188;2023-05-07T06:58:56;97881.72;;;15.52;67.79
68476;BME280;55464;48.266;14.188;2023-05-07T07:01:21;97881.75;;;15.56;68.11
68476;BME280;55464;48.266;14.188;2023-05-07T07:03:47;97878.25;;;15.59;67.99
68476;BME280;55464;48.266;14.188;2023-05-07T07:06:12;97858.75;;;15.55;68.53
68476;BME280;55464;48.266;14.188;2023-05-07T07:08:38;97872.41;;;15.67;67.92
68476;BME280;55464;48.266;14.188;2023-05-07T07:11:04;97870.47;;;15.72;67.23
68476;BME280;55464;48.266;14.188;2023-05-07T07:13:29;97875.31;;;15.75;67.62
68476;BME280;55464;48.266;14.188;2023-05-07T07:15:55;97868.91;;;15.74;67.68
68476;BME280;55464;48.266;14.188;2023-05-07T07:18:20;97863.81;;;15.76;68.13
68476;BME280;55464;48.266;14.188;2023-05-07T07:20:46;97866.28;;;15.81;67.75
68476;BME280;55464;48.266;14.188;2023-05-07T07:23:11;97861.19;;;15.87;68.05
68476;BME280;55464;48.266;14.188;2023-05-07T07:25:37;97864.00;;;15.91;67.59
68476;BME280;55464;48.266;14.188;2023-05-07T07:28:02;97869.19;;;15.92;67.63
68476;BME280;55464;48.266;14.188;2023-05-07T07:30:27;97859.69;;;15.97;68.20
68476;BME280;55464;48.266;14.188;2023-05-07T07:32:53;97864.91;;;16.02;67.48
68476;BME280;55464;48.266;14.188;2023-05-07T07:35:19;97861.38;;;16.05;67.58
68476;BME280;55464;48.266;14.188;2023-05-07T07:37:44;97856.63;;;16.05;67.36
68476;BME280;55464;48.266;14.188;2023-05-07T07:40:11;97857.03;;;16.07;67.81
68476;BME280;55464;48.266;14.188;2023-05-07T07:42:36;97861.06;;;16.10;67.54
68476;BME280;55464;48.266;14.188;2023-05-07T07:45:02;97859.47;;;16.13;68.30
68476;BME280;55464;48.266;14.188;2023-05-07T07:47:28;97854.78;;;16.17;67.73
68476;BME280;55464;48.266;14.188;2023-05-07T07:49:53;97856.00;;;16.23;67.06
68476;BME280;55464;48.266;14.188;2023-05-07T07:52:19;97855.69;;;16.28;66.93
68476;BME280;55464;48.266;14.188;2023-05-07T07:54:45;97860.50;;;16.31;66.98
68476;BME280;55464;48.266;14.188;2023-05-07T07:57:10;97864.47;;;16.34;67.10
68476;BME280;55464;48.266;14.188;2023-05-07T07:59:35;97853.34;;;16.34;66.79
68476;BME280;55464;48.266;14.188;2023-05-07T08:02:01;97865.75;;;16.40;67.31
68476;BME280;55464;48.266;14.188;2023-05-07T08:04:26;97863.75;;;16.40;66.71
68476;BME280;55464;48.266;14.188;2023-05-07T08:06:51;97864.66;;;16.48;66.94
68476;BME280;55464;48.266;14.188;2023-05-07T08:09:19;97875.78;;;16.48;66.58
68476;BME280;55464;48.266;14.188;2023-05-07T08:11:44;97887.75;;;16.56;65.74
68476;BME280;55464;48.266;14.188;2023-05-07T08:14:10;97884.22;;;16.59;65.50
68476;BME280;55464;48.266;14.188;2023-05-07T08:16:36;97872.69;;;16.57;64.98
68476;BME280;55464;48.266;14.188;2023-05-07T08:19:01;97867.19;;;16.64;65.04
68476;BME280;55464;48.266;14.188;2023-05-07T08:21:26;97873.56;;;16.68;64.49
68476;BME280;55464;48.266;14.188;2023-05-07T08:23:52;97878.41;;;16.75;64.45
68476;BME280;55464;48.266;14.188;2023-05-07T08:26:17;97876.81;;;16.74;63.96
68476;BME280;55464;48.266;14.188;2023-05-07T08:28:43;97878.03;;;16.76;65.15
68476;BME280;55464;48.266;14.188;2023-05-07T08:31:08;97874.53;;;16.83;64.38
68476;BME280;55464;48.266;14.188;2023-05-07T08:33:33;97883.72;;;16.87;64.91
68476;BME280;55464;48.266;14.188;2023-05-07T08:35:59;97874.16;;;16.88;65.78
68476;BME280;55464;48.266;14.188;2023-05-07T08:38:24;97883.41;;;16.96;63.71
68476;BME280;55464;48.266;14.188;2023-05-07T08:40:49;97879.38;;;16.93;64.10
68476;BME280;55464;48.266;14.188;2023-05-07T08:43:16;97874.22;;;16.92;64.44
68476;BME280;55464;48.266;14.188;2023-05-07T08:45:45;97870.28;;;16.96;65.40
68476;BME280;55464;48.266;14.188;2023-05-07T08:48:17;97865.94;;;16.99;64.28
68476;BME280;55464;48.266;14.188;2023-05-07T08:50:42;97875.91;;;17.07;64.03
68476;BME280;55464;48.266;14.188;2023-05-07T08:53:08;97873.13;;;17.07;64.10
68476;BME280;55464;48.266;14.188;2023-05-07T08:55:33;97875.94;;;17.11;64.71
68476;BME280;55464;48.266;14.188;2023-05-07T08:57:59;97875.19;;;17.14;65.56
68476;BME280;55464;48.266;14.188;2023-05-07T09:00:25;97883.59;;;17.21;65.11
68476;BME280;55464;48.266;14.188;2023-05-07T09:02:52;97882.06;;;17.27;65.11
68476;BME280;55464;48.266;14.188;2023-05-07T09:05:18;97872.53;;;17.32;64.12
68476;BME280;55464;48.266;14.188;2023-05-07T09:07:44;97876.94;;;17.36;63.83
68476;BME280;55464;48.266;14.188;2023-05-07T09:10:09;97881.38;;;17.41;64.81
68476;BME280;55464;48.266;14.188;2023-05-07T09:12:35;97878.19;;;17.43;62.82
68476;BME280;55464;48.266;14.188;2023-05-07T09:15:01;97876.19;;;17.39;63.25
68476;BME280;55464;48.266;14.188;2023-05-07T09:17:28;97877.38;;;17.42;63.38
68476;BME280;55464;48.266;14.188;2023-05-07T09:19:53;97868.63;;;17.44;63.82
68476;BME280;55464;48.266;14.188;2023-05-07T09:22:19;97872.22;;;17.48;63.08
68476;BME280;55464;48.266;14.188;2023-05-07T09:24:52;97864.72;;;17.55;63.87
68476;BME280;55464;48.266;14.188;2023-05-07T09:27:17;97872.34;;;17.62;63.71
68476;BME280;55464;48.266;14.188;2023-05-07T09:29:45;97863.97;;;17.62;63.94
68476;BME280;55464;48.266;14.188;2023-05-07T09:32:11;97864.38;;;17.64;64.69
68476;BME280;55464;48.266;14.188;2023-05-07T09:34:36;97868.41;;;17.74;63.53
68476;BME280;55464;48.266;14.188;2023-05-07T09:37:02;97860.47;;;17.76;64.28
68476;BME280;55464;48.266;14.188;2023-05-07T09:39:42;97862.47;;;17.83;66.12
68476;BME280;55464;48.266;14.188;2023-05-07T09:42:08;97860.53;;;17.87;65.40
68476;BME280;55464;48.266;14.188;2023-05-07T09:44:34;97869.25;;;17.85;64.07
68476;BME280;55464;48.266;14.188;2023-05-07T09:47:01;97856.94;;;17.90;64.77
68476;BME280;55464;48.266;14.188;2023-05-07T09:49:29;97865.75;;;17.95;64.35
68476;BME280;55464;48.266;14.188;2023-05-07T09:51:56;97855.81;;;18.02;64.22
68476;BME280;55464;48.266;14.188;2023-05-07T09:54:24;97859.44;;;18.06;63.29
68476;BME280;55464;48.266;14.188;2023-05-07T09:56:51;97862.25;;;18.13;63.11
68476;BME280;55464;48.266;14.188;2023-05-07T09:59:18;97860.66;;;18.16;63.77
68476;BME280;55464;48.266;14.188;2023-05-07T10:01:45;97855.47;;;18.18;62.48
68476;BME280;55464;48.266;14.188;2023-05-07T10:04:11;97853.06;;;18.20;64.58
68476;BME280;55464;48.266;14.188;2023-05-07T10:06:38;97848.31;;;18.20;64.71
68476;BME280;55464;48.266;14.188;2023-05-07T10:09:04;97851.50;;;18.26;64.77
68476;BME280;55464;48.266;14.188;2023-05-07T10:11:36;97858.31;;;18.32;64.37
68476;BME280;55464;48.266;14.188;2023-05-07T10:14:04;97863.53;;;18.41;63.85
68476;BME280;55464;48.266;14.188;2023-05-07T10:16:34;97863.13;;;18.46;64.30
68476;BME280;55464;48.266;14.188;2023-05-07T10:19:07;97853.16;;;18.52;64.75
68476;BME280;55464;48.266;14.188;2023-05-07T10:21:56;97852.38;;;18.55;64.84
68476;BME280;55464;48.266;14.188;2023-05-07T10:24:35;97825.25;;;18.52;65.65
68476;BME280;55464;48.266;14.188;2023-05-07T10:27:04;97846.81;;;18.66;65.04
68476;BME280;55464;48.266;14.188;2023-05-07T10:29:42;97839.63;;;18.72;63.49
68476;BME280;55464;48.266;14.188;2023-05-07T10:32:48;97832.06;;;18.76;63.67
68476;BME280;55464;48.266;14.188;2023-05-07T10:35:20;97826.06;;;18.67;62.37
68476;BME280;55464;48.266;14.188;2023-05-07T10:37:47;97834.03;;;18.76;62.62
68476;BME280;55464;48.266;14.188;2023-05-07T10:40:13;97836.44;;;18.81;63.25
68476;BME280;55464;48.266;14.188;2023-05-07T10:42:39;97826.09;;;18.81;62.33
68476;BME280;55464;48.266;14.188;2023-05-07T10:45:18;97825.31;;;18.88;62.30
68476;BME280;55464;48.266;14.188;2023-05-07T10:48:12;97826.91;;;18.93;62.07
68476;BME280;55464;48.266;14.188;2023-05-07T10:50:39;97813.34;;;18.87;61.09
68476;BME280;55464;48.266;14.188;2023-05-07T10:55:42;97815.34;;;19.01;62.27
68476;BME280;55464;48.266;14.188;2023-05-07T10:58:27;97817.31;;;19.08;61.58
68476;BME280;55464;48.266;14.188;2023-05-07T11:01:00;97820.50;;;19.10;61.64
68476;BME280;55464;48.266;14.188;2023-05-07T11:03:27;97813.31;;;19.09;61.88
68476;BME280;55464;48.266;14.188;2023-05-07T11:06:15;97808.16;;;19.15;60.96
68476;BME280;55464;48.266;14.188;2023-05-07T11:08:59;97813.72;;;19.25;61.70
68476;BME280;55464;48.266;14.188;2023-05-07T11:11:51;97814.88;;;19.35;60.74
68476;BME280;55464;48.266;14.188;2023-05-07T11:17:08;97808.06;;;19.47;62.00
68476;BME280;55464;48.266;14.188;2023-05-07T11:19:54;97812.44;;;19.55;62.37
68476;BME280;55464;48.266;14.188;2023-05-07T11:25:02;97808.44;;;19.53;60.68
68476;BME280;55464;48.266;14.188;2023-05-07T11:27:29;97808.88;;;19.55;62.81
68476;BME280;55464;48.266;14.188;2023-05-07T11:29:55;97811.22;;;19.63;61.69
68476;BME280;55464;48.266;14.188;2023-05-07T11:32:28;97808.00;;;19.69;62.22
68476;BME280;55464;48.266;14.188;2023-05-07T11:34:55;97810.81;;;19.72;59.78
68476;BME280;55464;48.266;14.188;2023-05-07T11:37:22;97802.81;;;19.74;58.43
68476;BME280;55464;48.266;14.188;2023-05-07T11:39:48;97809.59;;;19.80;58.89
68476;BME280;55464;48.266;14.188;2023-05-07T11:42:34;97813.94;;;19.89;58.03
68476;BME280;55464;48.266;14.188;2023-05-07T11:45:00;97808.34;;;19.92;58.12
68476;BME280;55464;48.266;14.188;2023-05-07T11:47:26;97795.94;;;19.97;59.68
68476;BME280;55464;48.266;14.188;2023-05-07T11:49:53;97807.44;;;20.13;60.95
68476;BME280;55464;48.266;14.188;2023-05-07T11:52:21;97802.19;;;20.19;58.65
68476;BME280;55464;48.266;14.188;2023-05-07T11:54:51;97791.78;;;20.19;58.32
68476;BME280;55464;48.266;14.188;2023-05-07T11:57:17;97800.97;;;20.27;59.00
68476;BME280;55464;48.266;14.188;2023-05-07T11:59:43;97790.13;;;20.33;57.68
68476;BME280;55464;48.266;14.188;2023-05-07T12:02:17;97795.28;;;20.42;57.10
68476;BME280;55464;48.266;14.188;2023-05-07T12:04:43;97791.31;;;20.39;57.80
68476;BME280;55464;48.266;14.188;2023-05-07T12:07:15;97787.19;;;20.51;59.23
68476;BME280;55464;48.266;14.188;2023-05-07T12:09:44;97796.34;;;20.58;56.92
68476;BME280;55464;48.266;14.188;2023-05-07T12:12:10;97791.53;;;20.66;57.15
68476;BME280;55464;48.266;14.188;2023-05-07T12:14:40;97793.06;;;20.74;56.95
68476;BME280;55464;48.266;14.188;2023-05-07T12:17:10;97797.78;;;20.85;57.73
68476;BME280;55464;48.266;14.188;2023-05-07T12:19:36;97802.53;;;20.88;56.93
68476;BME280;55464;48.266;14.188;2023-05-07T12:22:03;97812.13;;;20.90;56.57
68476;BME280;55464;48.266;14.188;2023-05-07T12:24:28;97796.88;;;20.99;55.66
68476;BME280;55464;48.266;14.188;2023-05-07T12:26:54;97787.22;;;21.00;55.94
68476;BME280;55464;48.266;14.188;2023-05-07T12:29:22;97798.72;;;21.12;55.60
68476;BME280;55464;48.266;14.188;2023-05-07T12:31:49;97787.09;;;21.14;54.61
68476;BME280;55464;48.266;14.188;2023-05-07T12:34:15;97792.22;;;21.23;56.50
68476;BME280;55464;48.266;14.188;2023-05-07T12:36:40;97788.16;;;21.27;57.82
68476;BME280;55464;48.266;14.188;2023-05-07T12:39:07;97798.47;;;21.38;55.68
68476;BME280;55464;48.266;14.188;2023-05-07T12:41:52;97779.28;;;21.36;55.33
68476;BME280;55464;48.266;14.188;2023-05-07T12:44:18;97765.22;;;21.40;56.34
68476;BME280;55464;48.266;14.188;2023-05-07T12:46:43;97787.69;;;21.36;55.12
68476;BME280;55464;48.266;14.188;2023-05-07T12:49:09;97788.50;;;21.33;54.67
68476;BME280;55464;48.266;14.188;2023-05-07T12:51:35;97793.66;;;21.38;54.91
68476;BME280;55464;48.266;14.188;2023-05-07T12:54:00;97775.63;;;21.39;54.45
68476;BME280;55464;48.266;14.188;2023-05-07T12:56:26;97786.34;;;21.51;55.34
68476;BME280;55464;48.266;14.188;2023-05-07T12:58:51;97784.16;;;21.66;55.60